createdAt,value
2022-07-28T00:02:21.086Z,26.99
2022-07-28T00:04:48.168Z,26.99
2022-07-28T00:07:14.753Z,26.94
2022-07-28T00:09:41.463Z,26.91
2022-07-28T00:12:08.311Z,26.88
2022-07-28T00:14:35.187Z,26.86
2022-07-28T00:17:01.851Z,26.80
2022-07-28T00:19:28.434Z,26.76
2022-07-28T00:21:55.021Z,26.70
2022-07-28T00:24:23.398Z,26.66
2022-07-28T00:26:50.246Z,26.61
2022-07-28T00:29:17.033Z,26.54
2022-07-28T00:31:43.747Z,26.52
2022-07-28T00:34:10.660Z,26.44
2022-07-28T00:36:37.811Z,26.44
2022-07-28T00:39:05.620Z,26.47
2022-07-28T00:41:32.741Z,26.43
2022-07-28T00:43:59.362Z,26.37
2022-07-28T00:46:26.243Z,26.36
2022-07-28T00:48:55.119Z,26.36
2022-07-28T00:51:24.591Z,26.38
2022-07-28T00:53:51.597Z,26.36
2022-07-28T00:56:19.963Z,26.34
2022-07-28T00:58:47.385Z,26.38
2022-07-28T01:01:17.802Z,26.42
2022-07-28T01:03:46.944Z,26.46
2022-07-28T01:06:37.867Z,26.46
2022-07-28T01:09:07.134Z,26.50
2022-07-28T01:11:47.369Z,26.45
2022-07-28T01:14:19.548Z,26.45
2022-07-28T01:17:15.038Z,26.38
2022-07-28T01:19:46.844Z,26.38
2022-07-28T01:22:20.216Z,26.26
2022-07-28T01:25:05.794Z,26.22
2022-07-28T01:28:02.663Z,26.13
2022-07-28T01:30:36.567Z,26.04
2022-07-28T01:33:09.315Z,26.02
2022-07-28T01:35:46.451Z,25.96
2022-07-28T01:38:14.881Z,26.00
2022-07-28T01:40:45.594Z,25.96
2022-07-28T01:43:20.593Z,25.93
2022-07-28T01:45:47.478Z,25.86
2022-07-28T01:48:17.036Z,25.92
2022-07-28T01:50:46.620Z,25.91
2022-07-28T01:53:16.003Z,25.92
2022-07-28T01:55:44.620Z,25.98
2022-07-28T01:58:16.957Z,26.00
2022-07-28T02:00:45.221Z,26.00
2022-07-28T02:03:12.630Z,25.76
2022-07-28T02:05:42.491Z,25.30
2022-07-28T02:08:11.519Z,24.89
2022-07-28T02:10:42.826Z,24.57
2022-07-28T02:13:11.301Z,24.55
2022-07-28T02:15:39.594Z,24.58
2022-07-28T02:18:07.593Z,24.60
2022-07-28T02:20:35.885Z,24.59
2022-07-28T02:23:03.212Z,24.52
2022-07-28T02:25:30.936Z,24.53
2022-07-28T02:28:01.899Z,24.48
2022-07-28T02:30:38.015Z,24.35
2022-07-28T02:33:23.308Z,24.31
2022-07-28T02:36:30.531Z,24.20
2022-07-28T02:39:07.624Z,24.09
2022-07-28T02:41:44.043Z,24.08
2022-07-28T02:44:18.398Z,24.01
2022-07-28T02:46:49.104Z,23.97
2022-07-28T02:49:25.416Z,23.96
2022-07-28T02:51:53.973Z,23.98
2022-07-28T02:54:23.415Z,23.97
2022-07-28T02:56:54.313Z,24.01
2022-07-28T02:59:22.227Z,23.99
2022-07-28T03:01:50.570Z,24.06
2022-07-28T03:04:38.182Z,24.13
2022-07-28T03:07:08.259Z,24.11
2022-07-28T03:09:45.978Z,24.13
2022-07-28T03:12:12.787Z,24.15
2022-07-28T03:14:39.928Z,24.14
2022-07-28T03:17:06.933Z,24.12
2022-07-28T03:19:33.590Z,24.08
2022-07-28T03:22:00.461Z,24.04
2022-07-28T03:24:36.787Z,24.01
2022-07-28T03:27:20.537Z,23.96
2022-07-28T03:29:53.094Z,23.93
2022-07-28T03:32:21.462Z,23.91
2022-07-28T03:34:48.602Z,23.97
2022-07-28T03:37:23.753Z,24.01
2022-07-28T03:39:52.371Z,24.13
2022-07-28T03:42:20.447Z,24.11
2022-07-28T03:44:48.223Z,24.19
2022-07-28T03:47:15.659Z,24.18
2022-07-28T03:49:46.211Z,24.11
2022-07-28T03:52:12.775Z,24.10
2022-07-28T03:54:39.371Z,24.08
2022-07-28T03:57:05.919Z,24.10
2022-07-28T03:59:32.482Z,24.03
2022-07-28T04:01:59.182Z,23.96
2022-07-28T04:04:25.758Z,23.90
2022-07-28T04:06:52.288Z,23.87
2022-07-28T04:09:18.923Z,23.80
2022-07-28T04:11:45.464Z,23.74
2022-07-28T04:14:16.735Z,23.63
2022-07-28T04:16:44.404Z,23.65
2022-07-28T04:19:11.540Z,23.63
2022-07-28T04:21:38.142Z,23.68
2022-07-28T04:24:05.100Z,23.70
2022-07-28T04:26:31.691Z,23.74
2022-07-28T04:28:58.456Z,23.77
2022-07-28T04:31:29.817Z,23.87
2022-07-28T04:33:56.385Z,23.93
2022-07-28T04:36:22.925Z,23.98
2022-07-28T04:38:49.487Z,24.08
2022-07-28T04:41:16.063Z,24.26
2022-07-28T04:43:43.277Z,24.46
2022-07-28T04:46:14.612Z,24.70
2022-07-28T04:48:41.698Z,24.70
2022-07-28T04:51:08.355Z,24.84
2022-07-28T04:53:35.575Z,25.31
2022-07-28T04:56:02.943Z,26.20
2022-07-28T04:58:30.982Z,26.83
2022-07-28T05:00:58.021Z,27.11
2022-07-28T05:03:24.634Z,27.47
2022-07-28T05:05:54.918Z,27.55
2022-07-28T05:08:25.680Z,27.83
2022-07-28T05:10:52.871Z,27.98
2022-07-28T05:13:19.534Z,27.99
2022-07-28T05:15:46.215Z,28.18
2022-07-28T05:18:12.750Z,28.25
2022-07-28T05:20:39.280Z,28.22
2022-07-28T05:23:06.088Z,28.12
2022-07-28T05:25:32.621Z,28.11
2022-07-28T05:27:59.288Z,28.17
2022-07-28T05:30:26.109Z,28.24
2022-07-28T05:32:54.070Z,28.46
2022-07-28T05:35:20.913Z,29.08
2022-07-28T05:37:47.511Z,29.06
2022-07-28T05:40:15.343Z,29.11
2022-07-28T05:42:43.942Z,29.17
2022-07-28T05:45:17.054Z,29.19
2022-07-28T05:47:48.331Z,29.23
2022-07-28T05:50:17.131Z,29.46
2022-07-28T05:52:44.362Z,29.71
2022-07-28T05:55:11.203Z,29.50
2022-07-28T05:57:38.462Z,29.70
2022-07-28T06:00:07.219Z,29.45
2022-07-28T06:02:33.957Z,29.73
2022-07-28T06:05:00.685Z,29.36
2022-07-28T06:07:43.676Z,29.22
2022-07-28T06:10:12.523Z,29.55
2022-07-28T06:12:41.038Z,29.46
2022-07-28T06:15:11.755Z,29.55
2022-07-28T06:17:38.399Z,29.67
2022-07-28T06:20:05.551Z,29.56
2022-07-28T06:22:44.878Z,29.75
2022-07-28T06:25:22.583Z,29.99
2022-07-28T06:27:49.990Z,30.32
2022-07-28T06:30:17.506Z,30.51
2022-07-28T06:32:45.850Z,30.27
2022-07-28T06:35:16.959Z,30.46
2022-07-28T06:37:48.220Z,30.25
2022-07-28T06:40:16.258Z,29.93
2022-07-28T06:42:43.722Z,29.95
2022-07-28T06:45:20.715Z,30.30
2022-07-28T06:47:49.887Z,30.64
2022-07-28T06:50:24.904Z,31.17
2022-07-28T06:52:57.054Z,31.46
2022-07-28T06:55:34.455Z,31.57
2022-07-28T06:58:03.277Z,31.59
2022-07-28T07:00:30.103Z,31.99
2022-07-28T07:02:56.862Z,31.18
2022-07-28T07:05:23.450Z,31.34
2022-07-28T07:07:49.988Z,31.71
2022-07-28T07:10:16.725Z,32.06
2022-07-28T07:12:43.301Z,31.84
2022-07-28T07:15:10.774Z,31.65
2022-07-28T07:17:37.667Z,31.91
2022-07-28T07:20:06.675Z,32.10
2022-07-28T07:22:33.641Z,32.23
2022-07-28T07:25:17.838Z,32.15
2022-07-28T07:27:45.361Z,32.24
2022-07-28T07:30:12.997Z,32.31
2022-07-28T07:32:39.951Z,32.19
2022-07-28T07:35:08.453Z,31.85
2022-07-28T07:37:35.264Z,32.76
2022-07-28T07:40:03.611Z,32.90
2022-07-28T07:42:30.195Z,32.60
2022-07-28T07:44:56.942Z,32.52
2022-07-28T07:47:23.503Z,32.67
2022-07-28T07:50:04.318Z,33.09
2022-07-28T07:52:31.493Z,33.12
2022-07-28T07:54:58.319Z,32.50
2022-07-28T07:57:24.912Z,32.56
2022-07-28T07:59:53.794Z,32.97
2022-07-28T08:02:20.564Z,33.13
2022-07-28T08:04:47.777Z,33.17
2022-07-28T08:07:14.964Z,33.05
2022-07-28T08:09:41.543Z,32.78
2022-07-28T08:12:08.614Z,33.52
2022-07-28T08:14:35.154Z,33.84
2022-07-28T08:17:02.075Z,33.92
2022-07-28T08:19:28.715Z,33.75
2022-07-28T08:21:58.345Z,32.86
2022-07-28T08:24:32.647Z,32.93
2022-07-28T08:27:04.337Z,33.35
2022-07-28T08:29:31.414Z,33.83
2022-07-28T08:31:58.200Z,33.94
2022-07-28T08:34:31.237Z,33.59
2022-07-28T08:37:04.822Z,33.88
2022-07-28T08:39:33.135Z,33.98
2022-07-28T08:42:01.170Z,34.03
2022-07-28T08:44:30.828Z,34.13
2022-07-28T08:46:58.928Z,33.97
2022-07-28T08:49:26.683Z,33.52
2022-07-28T08:51:59.827Z,33.82
2022-07-28T08:54:29.204Z,33.99
2022-07-28T08:56:57.749Z,34.43
2022-07-28T08:59:25.721Z,34.36
2022-07-28T09:01:57.427Z,34.64
2022-07-28T09:04:25.582Z,34.25
2022-07-28T09:06:52.896Z,34.49
2022-07-28T09:09:23.843Z,34.04
2022-07-28T09:11:50.415Z,34.14
2022-07-28T09:14:17.295Z,34.20
2022-07-28T09:16:44.787Z,34.80
2022-07-28T09:19:11.344Z,35.41
2022-07-28T09:21:38.490Z,34.76
2022-07-28T09:24:05.556Z,34.95
2022-07-28T09:26:32.112Z,35.43
2022-07-28T09:28:59.135Z,34.45
2022-07-28T09:31:27.229Z,34.39
2022-07-28T09:33:58.486Z,34.14
2022-07-28T09:36:25.210Z,34.12
2022-07-28T09:38:52.178Z,34.05
2022-07-28T09:41:21.699Z,34.28
2022-07-28T09:43:54.427Z,34.19
2022-07-28T09:46:24.969Z,34.48
2022-07-28T09:49:00.675Z,34.14
2022-07-28T09:51:33.975Z,34.17
2022-07-28T09:54:12.555Z,34.17
2022-07-28T09:56:44.040Z,35.18
2022-07-28T09:59:14.553Z,34.49
2022-07-28T10:02:00.973Z,34.28
2022-07-28T10:04:31.943Z,34.53
2022-07-28T10:07:13.967Z,34.10
2022-07-28T10:09:41.621Z,34.74
2022-07-28T10:12:15.171Z,34.93
2022-07-28T10:14:42.230Z,34.03
2022-07-28T10:17:10.300Z,33.93
2022-07-28T10:19:37.741Z,34.24
2022-07-28T10:22:05.055Z,33.85
2022-07-28T10:24:35.660Z,34.46
2022-07-28T10:27:04.570Z,34.18
2022-07-28T10:29:31.747Z,33.78
2022-07-28T10:32:05.156Z,33.99
2022-07-28T10:34:37.597Z,33.78
2022-07-28T10:37:08.745Z,33.49
2022-07-28T10:39:42.215Z,33.39
2022-07-28T10:42:11.486Z,33.67
2022-07-28T10:44:39.564Z,33.32
2022-07-28T10:47:09.570Z,33.42
2022-07-28T10:49:48.568Z,33.28
2022-07-28T10:52:45.616Z,33.48
2022-07-28T10:55:21.443Z,33.24
2022-07-28T10:58:28.840Z,33.18
2022-07-28T11:00:58.375Z,33.14
2022-07-28T11:03:40.540Z,33.28
2022-07-28T11:06:26.243Z,33.20
2022-07-28T11:08:54.405Z,33.13
2022-07-28T11:11:43.408Z,32.84
2022-07-28T11:14:34.062Z,33.27
2022-07-28T11:17:04.809Z,33.30
2022-07-28T11:19:55.795Z,33.13
2022-07-28T11:22:32.805Z,32.88
2022-07-28T11:25:01.123Z,33.22
2022-07-28T11:27:51.031Z,33.37
2022-07-28T11:30:33.601Z,33.70
2022-07-28T11:33:01.388Z,33.67
2022-07-28T11:35:53.130Z,33.18
2022-07-28T11:38:19.904Z,33.30
2022-07-28T11:40:48.914Z,33.39
2022-07-28T11:43:35.382Z,33.04
2022-07-28T11:46:07.572Z,33.34
2022-07-28T11:48:41.587Z,33.18
2022-07-28T11:51:09.220Z,33.10
2022-07-28T11:53:38.688Z,33.45
2022-07-28T11:56:10.538Z,33.22
2022-07-28T11:58:38.831Z,33.22
2022-07-28T12:01:17.217Z,33.53
2022-07-28T12:03:50.148Z,33.18
2022-07-28T12:06:43.486Z,33.65
2022-07-28T12:09:21.844Z,33.73
2022-07-28T12:11:54.244Z,33.50
2022-07-28T12:14:22.716Z,33.49
2022-07-28T12:16:53.379Z,33.60
2022-07-28T12:19:20.841Z,33.53
2022-07-28T12:21:49.376Z,33.52
2022-07-28T12:24:20.111Z,33.46
2022-07-28T12:26:50.138Z,33.69
2022-07-28T12:29:17.453Z,33.54
2022-07-28T12:31:55.638Z,33.84
2022-07-28T12:34:26.795Z,33.71
2022-07-28T12:36:57.816Z,33.96
2022-07-28T12:39:26.055Z,34.13
2022-07-28T12:42:07.888Z,34.11
2022-07-28T12:44:36.248Z,33.77
2022-07-28T12:47:04.101Z,33.26
2022-07-28T12:49:30.755Z,33.55
2022-07-28T12:51:59.159Z,33.44
2022-07-28T12:54:36.790Z,33.26
2022-07-28T12:57:03.965Z,33.39
2022-07-28T12:59:35.497Z,33.52
2022-07-28T13:02:03.043Z,33.67
2022-07-28T13:04:50.178Z,33.42
2022-07-28T13:07:22.681Z,33.41
2022-07-28T13:10:12.314Z,33.43
2022-07-28T13:12:39.449Z,32.96
2022-07-28T13:15:16.108Z,33.21
2022-07-28T13:17:51.158Z,33.24
2022-07-28T13:20:18.624Z,33.23
2022-07-28T13:22:45.799Z,33.31
2022-07-28T13:25:13.707Z,33.04
2022-07-28T13:27:40.681Z,32.97
2022-07-28T13:30:09.987Z,32.94
2022-07-28T13:32:37.152Z,32.76
2022-07-28T13:35:06.664Z,32.77
2022-07-28T13:37:41.493Z,32.70
2022-07-28T13:40:08.852Z,32.67
2022-07-28T13:42:35.672Z,32.72
2022-07-28T13:45:05.026Z,32.64
2022-07-28T13:47:35.462Z,32.97
2022-07-28T13:50:06.059Z,32.40
2022-07-28T13:52:34.868Z,32.73
2022-07-28T13:55:06.057Z,32.37
2022-07-28T13:57:35.704Z,32.45
2022-07-28T14:00:07.594Z,32.60
2022-07-28T14:02:35.295Z,32.61
2022-07-28T14:05:02.865Z,32.74
2022-07-28T14:07:29.457Z,32.57
2022-07-28T14:09:56.239Z,32.89
2022-07-28T14:12:22.827Z,32.92
2022-07-28T14:14:51.597Z,32.74
2022-07-28T14:20:10.452Z,32.47
2022-07-28T14:22:37.070Z,32.23
2022-07-28T14:25:04.006Z,32.26
2022-07-28T14:27:31.159Z,32.80
2022-07-28T14:29:57.800Z,32.86
2022-07-28T14:32:24.460Z,33.03
2022-07-28T14:34:51.890Z,32.29
2022-07-28T14:37:20.452Z,32.08
2022-07-28T14:39:47.076Z,31.99
2022-07-28T14:42:13.791Z,32.41
2022-07-28T14:44:41.972Z,32.23
2022-07-28T14:47:08.735Z,31.97
2022-07-28T14:49:37.942Z,31.86
2022-07-28T14:52:24.901Z,31.68
2022-07-28T14:54:51.637Z,31.72
2022-07-28T14:57:19.285Z,31.57
2022-07-28T14:59:46.017Z,31.51
2022-07-28T15:02:13.760Z,31.50
2022-07-28T15:04:40.418Z,31.65
2022-07-28T15:07:07.219Z,31.69
2022-07-28T15:09:38.586Z,31.85
2022-07-28T15:12:08.580Z,31.61
2022-07-28T15:14:35.271Z,31.59
2022-07-28T15:17:01.927Z,31.64
2022-07-28T15:19:33.565Z,31.39
2022-07-28T15:22:03.304Z,31.50
2022-07-28T15:24:32.348Z,31.52
2022-07-28T15:27:00.811Z,31.69
2022-07-28T15:29:28.342Z,31.35
2022-07-28T15:32:02.119Z,31.40
2022-07-28T15:34:31.779Z,31.55
2022-07-28T15:36:58.374Z,31.57
2022-07-28T15:39:24.946Z,31.57
2022-07-28T15:41:57.589Z,31.70
2022-07-28T15:44:25.980Z,31.73
2022-07-28T15:46:53.296Z,31.74
2022-07-28T15:49:20.200Z,31.74
2022-07-28T15:51:47.041Z,31.71
2022-07-28T15:54:14.220Z,31.86
2022-07-28T15:56:42.103Z,31.74
2022-07-28T15:59:09.865Z,31.61
2022-07-28T16:01:38.874Z,31.50
2022-07-28T16:04:07.637Z,31.61
2022-07-28T16:06:52.832Z,31.33
2022-07-28T16:09:19.846Z,31.34
2022-07-28T16:11:46.489Z,31.35
2022-07-28T16:14:13.393Z,31.27
2022-07-28T16:16:41.019Z,31.36
2022-07-28T16:19:20.125Z,31.27
2022-07-28T16:21:57.512Z,31.21
2022-07-28T16:24:24.221Z,31.11
2022-07-28T16:26:51.361Z,30.94
2022-07-28T16:29:18.423Z,30.91
2022-07-28T16:31:45.649Z,31.04
2022-07-28T16:34:13.270Z,30.97
2022-07-28T16:36:40.200Z,31.00
2022-07-28T16:39:09.438Z,30.90
2022-07-28T16:41:47.460Z,30.91
2022-07-28T16:44:16.103Z,30.89
2022-07-28T16:46:42.968Z,30.81
2022-07-28T16:49:09.689Z,30.90
2022-07-28T16:51:36.408Z,30.98
2022-07-28T16:54:03.069Z,30.94
2022-07-28T16:56:29.709Z,30.84
2022-07-28T16:59:00.489Z,30.93
2022-07-28T17:01:30.103Z,31.10
2022-07-28T17:03:56.762Z,31.15
2022-07-28T17:06:23.421Z,31.18
2022-07-28T17:08:50.430Z,31.00
2022-07-28T17:11:17.210Z,30.97
2022-07-28T17:13:45.515Z,30.96
2022-07-28T17:16:13.333Z,31.00
2022-07-28T17:18:40.620Z,31.05
2022-07-28T17:21:08.606Z,31.11
2022-07-28T17:23:36.658Z,31.12
2022-07-28T17:27:32.475Z,31.06
2022-07-28T17:29:10.891Z,31.07
2022-07-28T17:31:38.511Z,30.99
2022-07-28T17:34:05.369Z,30.96
2022-07-28T17:36:35.181Z,30.95
2022-07-28T17:39:02.080Z,30.90
2022-07-28T17:41:28.843Z,30.86
2022-07-28T17:43:55.475Z,30.91
2022-07-28T17:46:22.824Z,30.89
2022-07-28T17:48:53.416Z,30.82
2022-07-28T17:51:20.143Z,30.88
2022-07-28T17:53:47.582Z,30.80
2022-07-28T17:56:15.183Z,30.80
2022-07-28T17:58:41.947Z,30.69
2022-07-28T18:01:12.332Z,30.66
2022-07-28T18:03:59.303Z,30.60
2022-07-28T18:06:32.406Z,30.58
2022-07-28T18:09:07.243Z,30.51
2022-07-28T18:11:56.096Z,30.52
2022-07-28T18:14:29.662Z,30.44
2022-07-28T18:16:56.911Z,30.38
2022-07-28T18:19:23.598Z,30.36
2022-07-28T18:21:50.388Z,30.33
2022-07-28T18:24:18.267Z,30.31
2022-07-28T18:26:45.242Z,30.24
2022-07-28T18:29:11.891Z,30.21
2022-07-28T18:31:45.458Z,30.19
2022-07-28T18:34:13.162Z,30.13
2022-07-28T18:36:40.049Z,30.12
2022-07-28T18:39:06.695Z,30.05
2022-07-28T18:41:34.656Z,30.02
2022-07-28T18:44:13.924Z,29.95
2022-07-28T18:46:41.018Z,29.88
2022-07-28T18:49:07.868Z,29.83
2022-07-28T18:51:34.560Z,29.78
2022-07-28T18:54:01.255Z,29.77
2022-07-28T18:56:27.856Z,29.71
2022-07-28T18:58:56.041Z,29.65
2022-07-28T19:01:22.837Z,29.57
2022-07-28T19:03:49.581Z,29.54
2022-07-28T19:06:16.615Z,29.41
2022-07-28T19:08:43.311Z,29.31
2022-07-28T19:11:10.423Z,29.24
2022-07-28T19:13:37.061Z,29.15
2022-07-28T19:16:03.840Z,29.11
2022-07-28T19:18:30.427Z,29.07
2022-07-28T19:20:57.441Z,28.99
2022-07-28T19:23:24.626Z,28.98
2022-07-28T19:25:51.641Z,28.88
2022-07-28T19:28:18.406Z,28.79
2022-07-28T19:30:45.133Z,28.72
2022-07-28T19:33:14.654Z,28.61
2022-07-28T19:35:45.495Z,28.40
2022-07-28T19:38:12.435Z,28.12
2022-07-28T19:40:41.372Z,27.76
2022-07-28T19:43:07.981Z,27.71
2022-07-28T19:45:37.281Z,27.70
2022-07-28T19:48:04.264Z,27.66
2022-07-28T19:50:31.041Z,27.59
2022-07-28T19:52:57.860Z,27.62
2022-07-28T19:55:27.040Z,27.66
2022-07-28T19:57:55.889Z,27.67
2022-07-28T20:00:22.598Z,27.69
2022-07-28T20:02:49.293Z,27.74
2022-07-28T20:05:16.560Z,27.76
2022-07-28T20:07:43.279Z,27.82
2022-07-28T20:10:09.972Z,27.83
2022-07-28T20:12:37.252Z,27.85
2022-07-28T20:15:07.726Z,27.83
2022-07-28T20:17:39.483Z,27.79
2022-07-28T20:20:11.815Z,27.78
2022-07-28T20:22:39.524Z,27.78
2022-07-28T20:25:09.288Z,27.81
2022-07-28T20:27:40.397Z,27.71
2022-07-28T20:30:08.382Z,27.46
2022-07-28T20:32:36.903Z,27.27
2022-07-28T20:35:05.752Z,26.99
2022-07-28T20:37:35.886Z,26.75
2022-07-28T20:40:06.006Z,26.62
2022-07-28T20:42:32.746Z,26.53
2022-07-28T20:44:59.507Z,26.49
2022-07-28T20:47:27.701Z,26.58
2022-07-28T20:49:55.136Z,26.58
2022-07-28T20:52:21.764Z,26.56
2022-07-28T20:54:53.637Z,26.47
2022-07-28T20:57:21.478Z,26.34
2022-07-28T20:59:49.019Z,26.33
2022-07-28T21:02:15.859Z,26.28
2022-07-28T21:04:42.718Z,26.36
2022-07-28T21:07:10.588Z,26.39
2022-07-28T21:09:46.305Z,26.39
2022-07-28T21:12:12.910Z,26.37
2022-07-28T21:14:39.999Z,26.24
2022-07-28T21:17:07.011Z,26.18
2022-07-28T21:19:34.028Z,26.16
2022-07-28T21:22:00.837Z,26.16
2022-07-28T21:24:27.446Z,26.20
2022-07-28T21:26:54.111Z,26.27
2022-07-28T21:32:02.341Z,26.44
2022-07-28T21:34:34.567Z,26.51
2022-07-28T21:37:03.071Z,26.58
2022-07-28T21:39:29.980Z,26.64
2022-07-28T21:41:56.588Z,26.68
2022-07-28T21:44:23.447Z,26.71
2022-07-28T21:46:50.453Z,26.73
2022-07-28T21:49:17.153Z,26.79
2022-07-28T21:51:46.193Z,26.79
2022-07-28T21:54:13.004Z,26.76
2022-07-28T21:56:39.814Z,26.80
2022-07-28T21:59:06.371Z,26.81
2022-07-28T22:01:33.055Z,26.84
2022-07-28T22:03:59.750Z,26.81
2022-07-28T22:06:26.332Z,26.82
2022-07-28T22:08:55.942Z,26.76
2022-07-28T22:11:23.018Z,26.75
2022-07-28T22:13:51.295Z,26.78
2022-07-28T22:16:18.074Z,26.80
2022-07-28T22:18:44.667Z,26.77
2022-07-28T22:21:11.511Z,26.75
2022-07-28T22:23:39.719Z,26.65
2022-07-28T22:26:06.124Z,26.54
2022-07-28T22:28:32.673Z,26.43
2022-07-28T22:31:09.154Z,26.36
2022-07-28T22:33:37.581Z,26.18
2022-07-28T22:36:05.324Z,26.12
2022-07-28T22:38:32.234Z,26.12
2022-07-28T22:40:58.819Z,26.13
2022-07-28T22:43:25.478Z,26.04
2022-07-28T22:45:52.366Z,25.99
2022-07-28T22:48:19.427Z,26.00
2022-07-28T22:50:46.043Z,25.96
2022-07-28T22:53:12.724Z,25.90
2022-07-28T22:58:24.292Z,25.61
2022-07-28T23:00:51.470Z,25.52
2022-07-28T23:03:18.871Z,25.38
2022-07-28T23:05:46.030Z,25.16
2022-07-28T23:08:13.072Z,25.01
2022-07-28T23:10:39.958Z,24.90
2022-07-28T23:13:07.138Z,24.79
2022-07-28T23:15:40.699Z,24.88
2022-07-28T23:18:10.578Z,24.71
2022-07-28T23:20:39.305Z,23.73
2022-07-28T23:23:06.781Z,23.27
2022-07-28T23:25:35.723Z,23.05
2022-07-28T23:28:02.635Z,23.02
2022-07-28T23:30:29.527Z,22.97
2022-07-28T23:32:56.422Z,23.01
2022-07-28T23:35:23.145Z,22.98
2022-07-28T23:37:49.819Z,22.94
2022-07-28T23:40:16.609Z,22.83
2022-07-28T23:42:43.319Z,22.81
2022-07-28T23:45:10.718Z,22.69
2022-07-28T23:47:37.503Z,22.72
2022-07-28T23:50:05.247Z,22.78
2022-07-28T23:52:32.229Z,22.82
2022-07-28T23:54:59.465Z,22.81
2022-07-28T23:57:30.892Z,22.78
2022-07-28T23:59:58.655Z,22.87
